sensor_id;sensor_type;location;lat;lon;timestamp;temperature;humidity
74153;DHT22;62505;46.070;14.492;2023-06-22T00:00:50;24.40;73.70
74153;DHT22;62505;46.070;14.492;2023-06-22T00:03:19;24.40;73.10
74153;DHT22;62505;46.070;14.492;2023-06-22T00:05:47;24.50;73.10
74153;DHT22;62505;46.070;14.492;2023-06-22T00:08:14;24.40;73.00
74153;DHT22;62505;46.070;14.492;2023-06-22T00:10:41;24.50;73.10
74153;DHT22;62505;46.070;14.492;2023-06-22T00:13:09;24.40;72.80
74153;DHT22;62505;46.070;14.492;2023-06-22T00:15:37;24.40;72.80
74153;DHT22;62505;46.070;14.492;2023-06-22T00:18:04;24.40;73.00
74153;DHT22;62505;46.070;14.492;2023-06-22T00:20:33;24.40;72.90
74153;DHT22;62505;46.070;14.492;2023-06-22T00:23:03;24.40;73.00
74153;DHT22;62505;46.070;14.492;2023-06-22T00:25:33;24.40;73.10
74153;DHT22;62505;46.070;14.492;2023-06-22T00:28:00;24.40;72.80
74153;DHT22;62505;46.070;14.492;2023-06-22T00:30:27;24.40;72.80
74153;DHT22;62505;46.070;14.492;2023-06-22T00:32:54;24.40;72.90
74153;DHT22;62505;46.070;14.492;2023-06-22T00:35:21;24.40;73.70
74153;DHT22;62505;46.070;14.492;2023-06-22T00:37:49;24.40;73.10
74153;DHT22;62505;46.070;14.492;2023-06-22T00:40:17;24.40;72.90
74153;DHT22;62505;46.070;14.492;2023-06-22T00:42:47;24.40;72.80
74153;DHT22;62505;46.070;14.492;2023-06-22T00:45:14;24.40;72.80
74153;DHT22;62505;46.070;14.492;2023-06-22T00:47:41;24.40;72.90
74153;DHT22;62505;46.070;14.492;2023-06-22T00:50:10;24.40;72.80
74153;DHT22;62505;46.070;14.492;2023-06-22T00:52:44;24.40;72.80
74153;DHT22;62505;46.070;14.492;2023-06-22T00:55:13;24.40;72.80
74153;DHT22;62505;46.070;14.492;2023-06-22T00:57:44;24.40;72.70
74153;DHT22;62505;46.070;14.492;2023-06-22T01:00:12;24.40;72.80
74153;DHT22;62505;46.070;14.492;2023-06-22T01:02:44;24.40;72.80
74153;DHT22;62505;46.070;14.492;2023-06-22T01:05:12;24.40;73.50
74153;DHT22;62505;46.070;14.492;2023-06-22T01:07:42;24.40;72.90
74153;DHT22;62505;46.070;14.492;2023-06-22T01:10:17;24.40;72.80
74153;DHT22;62505;46.070;14.492;2023-06-22T01:12:50;24.40;72.80
74153;DHT22;62505;46.070;14.492;2023-06-22T01:15:23;24.40;72.80
74153;DHT22;62505;46.070;14.492;2023-06-22T01:17:52;24.40;72.80
74153;DHT22;62505;46.070;14.492;2023-06-22T01:20:20;24.40;72.80
74153;DHT22;62505;46.070;14.492;2023-06-22T01:22:59;24.40;72.90
74153;DHT22;62505;46.070;14.492;2023-06-22T01:25:36;24.40;72.80
74153;DHT22;62505;46.070;14.492;2023-06-22T01:28:23;24.40;72.80
74153;DHT22;62505;46.070;14.492;2023-06-22T01:30:52;24.40;72.80
74153;DHT22;62505;46.070;14.492;2023-06-22T01:33:29;24.40;72.80
74153;DHT22;62505;46.070;14.492;2023-06-22T01:35:57;24.40;72.80
74153;DHT22;62505;46.070;14.492;2023-06-22T01:38:25;24.40;72.70
74153;DHT22;62505;46.070;14.492;2023-06-22T01:40:52;24.40;72.70
74153;DHT22;62505;46.070;14.492;2023-06-22T01:43:21;24.40;72.60
74153;DHT22;62505;46.070;14.492;2023-06-22T01:45:50;24.40;72.70
74153;DHT22;62505;46.070;14.492;2023-06-22T01:48:19;24.40;72.70
74153;DHT22;62505;46.070;14.492;2023-06-22T01:50:47;24.40;72.70
74153;DHT22;62505;46.070;14.492;2023-06-22T01:53:14;24.30;73.40
74153;DHT22;62505;46.070;14.492;2023-06-22T01:55:41;24.30;72.60
74153;DHT22;62505;46.070;14.492;2023-06-22T01:58:07;24.40;72.70
74153;DHT22;62505;46.070;14.492;2023-06-22T02:00:37;24.30;72.50
74153;DHT22;62505;46.070;14.492;2023-06-22T02:03:08;24.30;72.60
74153;DHT22;62505;46.070;14.492;2023-06-22T02:05:43;24.40;72.60
74153;DHT22;62505;46.070;14.492;2023-06-22T02:08:15;24.40;72.60
74153;DHT22;62505;46.070;14.492;2023-06-22T02:10:45;24.30;72.60
74153;DHT22;62505;46.070;14.492;2023-06-22T02:13:13;24.40;72.60
74153;DHT22;62505;46.070;14.492;2023-06-22T02:15:40;24.30;72.60
74153;DHT22;62505;46.070;14.492;2023-06-22T02:18:07;24.30;73.40
74153;DHT22;62505;46.070;14.492;2023-06-22T02:20:37;24.40;72.70
74153;DHT22;62505;46.070;14.492;2023-06-22T02:23:05;24.40;72.70
74153;DHT22;62505;46.070;14.492;2023-06-22T02:25:32;24.40;72.60
74153;DHT22;62505;46.070;14.492;2023-06-22T02:27:59;24.30;72.60
74153;DHT22;62505;46.070;14.492;2023-06-22T02:30:25;24.40;72.70
74153;DHT22;62505;46.070;14.492;2023-06-22T02:32:52;24.40;72.70
74153;DHT22;62505;46.070;14.492;2023-06-22T02:35:24;24.30;72.70
74153;DHT22;62505;46.070;14.492;2023-06-22T02:37:52;24.40;72.80
74153;DHT22;62505;46.070;14.492;2023-06-22T02:40:19;24.40;72.80
74153;DHT22;62505;46.070;14.492;2023-06-22T02:42:46;24.30;72.70
74153;DHT22;62505;46.070;14.492;2023-06-22T02:45:14;24.30;72.70
74153;DHT22;62505;46.070;14.492;2023-06-22T02:47:40;24.40;72.80
74153;DHT22;62505;46.070;14.492;2023-06-22T02:50:08;24.40;72.90
74153;DHT22;62505;46.070;14.492;2023-06-22T02:52:35;24.40;72.90
74153;DHT22;62505;46.070;14.492;2023-06-22T02:55:04;24.40;72.80
74153;DHT22;62505;46.070;14.492;2023-06-22T02:57:32;24.30;72.80
74153;DHT22;62505;46.070;14.492;2023-06-22T02:59:59;24.30;72.80
74153;DHT22;62505;46.070;14.492;2023-06-22T03:02:26;24.30;72.80
74153;DHT22;62505;46.070;14.492;2023-06-22T03:04:53;24.30;72.80
74153;DHT22;62505;46.070;14.492;2023-06-22T03:07:20;24.30;72.80
74153;DHT22;62505;46.070;14.492;2023-06-22T03:09:47;24.30;72.80
74153;DHT22;62505;46.070;14.492;2023-06-22T03:12:15;24.40;72.90
74153;DHT22;62505;46.070;14.492;2023-06-22T03:14:42;24.30;72.80
74153;DHT22;62505;46.070;14.492;2023-06-22T03:17:09;24.30;72.80
74153;DHT22;62505;46.070;14.492;2023-06-22T03:19:37;24.30;72.80
74153;DHT22;62505;46.070;14.492;2023-06-22T03:22:04;24.30;72.80
74153;DHT22;62505;46.070;14.492;2023-06-22T03:24:38;24.30;72.80
74153;DHT22;62505;46.070;14.492;2023-06-22T03:27:05;24.40;73.60
74153;DHT22;62505;46.070;14.492;2023-06-22T03:29:33;24.30;72.80
74153;DHT22;62505;46.070;14.492;2023-06-22T03:32:00;24.30;72.80
74153;DHT22;62505;46.070;14.492;2023-06-22T03:34:27;24.30;72.80
74153;DHT22;62505;46.070;14.492;2023-06-22T03:36:54;24.30;72.80
74153;DHT22;62505;46.070;14.492;2023-06-22T03:39:21;24.30;72.80
74153;DHT22;62505;46.070;14.492;2023-06-22T03:41:48;24.30;72.80
74153;DHT22;62505;46.070;14.492;2023-06-22T03:44:15;24.30;72.80
74153;DHT22;62505;46.070;14.492;2023-06-22T03:46:43;24.30;72.80
74153;DHT22;62505;46.070;14.492;2023-06-22T03:49:10;24.30;72.90
74153;DHT22;62505;46.070;14.492;2023-06-22T03:51:36;24.30;72.90
74153;DHT22;62505;46.070;14.492;2023-06-22T03:54:04;24.30;72.80
74153;DHT22;62505;46.070;14.492;2023-06-22T03:56:31;24.30;72.80
74153;DHT22;62505;46.070;14.492;2023-06-22T03:58:58;24.30;72.80
74153;DHT22;62505;46.070;14.492;2023-06-22T04:01:24;24.30;72.80
74153;DHT22;62505;46.070;14.492;2023-06-22T04:03:53;24.30;72.90
74153;DHT22;62505;46.070;14.492;2023-06-22T04:06:20;24.30;73.00
74153;DHT22;62505;46.070;14.492;2023-06-22T04:08:50;24.30;72.90
74153;DHT22;62505;46.070;14.492;2023-06-22T04:11:16;24.30;72.90
74153;DHT22;62505;46.070;14.492;2023-06-22T04:13:44;24.30;73.70
74153;DHT22;62505;46.070;14.492;2023-06-22T04:16:11;24.30;72.90
74153;DHT22;62505;46.070;14.492;2023-06-22T04:18:37;24.30;72.90
74153;DHT22;62505;46.070;14.492;2023-06-22T04:21:06;24.30;73.00
74153;DHT22;62505;46.070;14.492;2023-06-22T04:23:32;24.30;74.10
74153;DHT22;62505;46.070;14.492;2023-06-22T04:25:59;24.30;73.80
74153;DHT22;62505;46.070;14.492;2023-06-22T04:28:26;24.30;73.40
74153;DHT22;62505;46.070;14.492;2023-06-22T04:30:53;24.30;73.40
74153;DHT22;62505;46.070;14.492;2023-06-22T04:33:23;24.30;73.30
74153;DHT22;62505;46.070;14.492;2023-06-22T04:35:50;24.30;73.40
74153;DHT22;62505;46.070;14.492;2023-06-22T04:38:18;24.30;73.40
74153;DHT22;62505;46.070;14.492;2023-06-22T04:40:47;24.30;73.40
74153;DHT22;62505;46.070;14.492;2023-06-22T04:43:14;24.30;73.50
74153;DHT22;62505;46.070;14.492;2023-06-22T04:45:41;24.30;73.60
74153;DHT22;62505;46.070;14.492;2023-06-22T04:48:07;24.30;73.60
74153;DHT22;62505;46.070;14.492;2023-06-22T04:50:36;24.30;73.50
74153;DHT22;62505;46.070;14.492;2023-06-22T04:53:04;24.30;73.50
74153;DHT22;62505;46.070;14.492;2023-06-22T04:55:34;24.30;73.70
74153;DHT22;62505;46.070;14.492;2023-06-22T04:58:03;24.30;73.70
74153;DHT22;62505;46.070;14.492;2023-06-22T05:00:31;24.30;73.60
74153;DHT22;62505;46.070;14.492;2023-06-22T05:03:02;24.30;73.60
74153;DHT22;62505;46.070;14.492;2023-06-22T05:05:29;24.30;73.50
74153;DHT22;62505;46.070;14.492;2023-06-22T05:07:56;24.30;73.50
74153;DHT22;62505;46.070;14.492;2023-06-22T05:10:26;24.30;73.50
74153;DHT22;62505;46.070;14.492;2023-06-22T05:12:54;24.30;73.50
74153;DHT22;62505;46.070;14.492;2023-06-22T05:15:21;24.30;73.50
74153;DHT22;62505;46.070;14.492;2023-06-22T05:17:52;24.30;73.60
74153;DHT22;62505;46.070;14.492;2023-06-22T05:20:19;24.30;73.60
74153;DHT22;62505;46.070;14.492;2023-06-22T05:22:47;24.30;73.60
74153;DHT22;62505;46.070;14.492;2023-06-22T05:25:14;24.30;73.60
74153;DHT22;62505;46.070;14.492;2023-06-22T05:27:41;24.30;73.70
74153;DHT22;62505;46.070;14.492;2023-06-22T05:30:11;24.30;73.70
74153;DHT22;62505;46.070;14.492;2023-06-22T05:32:38;24.30;73.80
74153;DHT22;62505;46.070;14.492;2023-06-22T05:35:05;24.30;73.80
74153;DHT22;62505;46.070;14.492;2023-06-22T05:37:32;24.30;73.80
74153;DHT22;62505;46.070;14.492;2023-06-22T05:39:59;24.30;73.90
74153;DHT22;62505;46.070;14.492;2023-06-22T05:42:26;24.30;73.90
74153;DHT22;62505;46.070;14.492;2023-06-22T05:44:53;24.30;73.90
74153;DHT22;62505;46.070;14.492;2023-06-22T05:47:22;24.30;73.90
74153;DHT22;62505;46.070;14.492;2023-06-22T05:49:49;24.30;73.90
74153;DHT22;62505;46.070;14.492;2023-06-22T05:52:15;24.30;73.80
74153;DHT22;62505;46.070;14.492;2023-06-22T05:54:42;24.30;73.80
74153;DHT22;62505;46.070;14.492;2023-06-22T05:57:09;24.30;73.80
74153;DHT22;62505;46.070;14.492;2023-06-22T05:59:47;24.30;73.80
74153;DHT22;62505;46.070;14.492;2023-06-22T06:02:13;24.30;73.80
74153;DHT22;62505;46.070;14.492;2023-06-22T06:04:42;24.30;73.70
74153;DHT22;62505;46.070;14.492;2023-06-22T06:07:09;24.30;73.80
74153;DHT22;62505;46.070;14.492;2023-06-22T06:09:36;24.30;74.10
74153;DHT22;62505;46.070;14.492;2023-06-22T06:12:03;24.30;74.20
74153;DHT22;62505;46.070;14.492;2023-06-22T06:14:30;24.40;74.40
74153;DHT22;62505;46.070;14.492;2023-06-22T06:16:57;24.40;74.50
74153;DHT22;62505;46.070;14.492;2023-06-22T06:19:24;24.40;74.30
74153;DHT22;62505;46.070;14.492;2023-06-22T06:21:52;24.40;76.10
74153;DHT22;62505;46.070;14.492;2023-06-22T06:24:19;24.40;75.60
74153;DHT22;62505;46.070;14.492;2023-06-22T06:26:46;24.50;75.10
74153;DHT22;62505;46.070;14.492;2023-06-22T06:29:13;24.50;76.40
74153;DHT22;62505;46.070;14.492;2023-06-22T06:31:42;24.50;76.20
74153;DHT22;62505;46.070;14.492;2023-06-22T06:34:08;24.40;76.40
74153;DHT22;62505;46.070;14.492;2023-06-22T06:36:35;24.50;76.20
74153;DHT22;62505;46.070;14.492;2023-06-22T06:39:04;24.40;77.00
74153;DHT22;62505;46.070;14.492;2023-06-22T06:41:31;24.50;76.60
74153;DHT22;62505;46.070;14.492;2023-06-22T06:43:57;24.50;76.70
74153;DHT22;62505;46.070;14.492;2023-06-22T06:46:24;24.40;75.40
74153;DHT22;62505;46.070;14.492;2023-06-22T06:48:51;24.50;75.10
74153;DHT22;62505;46.070;14.492;2023-06-22T06:51:18;24.50;75.20
74153;DHT22;62505;46.070;14.492;2023-06-22T06:53:45;24.50;74.90
74153;DHT22;62505;46.070;14.492;2023-06-22T06:56:13;24.40;74.50
74153;DHT22;62505;46.070;14.492;2023-06-22T06:58:41;24.40;74.60
74153;DHT22;62505;46.070;14.492;2023-06-22T07:01:10;24.40;74.40
74153;DHT22;62505;46.070;14.492;2023-06-22T07:03:37;24.40;74.30
74153;DHT22;62505;46.070;14.492;2023-06-22T07:06:04;24.40;74.40
74153;DHT22;62505;46.070;14.492;2023-06-22T07:08:31;24.40;74.30
74153;DHT22;62505;46.070;14.492;2023-06-22T07:10:58;24.40;74.30
74153;DHT22;62505;46.070;14.492;2023-06-22T07:13:27;24.50;74.50
74153;DHT22;62505;46.070;14.492;2023-06-22T07:15:54;24.50;74.50
74153;DHT22;62505;46.070;14.492;2023-06-22T07:18:21;24.40;74.20
74153;DHT22;62505;46.070;14.492;2023-06-22T07:20:48;24.40;74.20
74153;DHT22;62505;46.070;14.492;2023-06-22T07:23:16;24.50;74.00
74153;DHT22;62505;46.070;14.492;2023-06-22T07:25:43;24.50;74.20
74153;DHT22;62505;46.070;14.492;2023-06-22T07:28:10;24.50;74.40
74153;DHT22;62505;46.070;14.492;2023-06-22T07:30:38;24.50;74.30
74153;DHT22;62505;46.070;14.492;2023-06-22T07:33:05;24.50;74.30
74153;DHT22;62505;46.070;14.492;2023-06-22T07:35:34;24.50;74.20
74153;DHT22;62505;46.070;14.492;2023-06-22T07:38:00;24.40;74.40
74153;DHT22;62505;46.070;14.492;2023-06-22T07:40:27;24.40;74.20
74153;DHT22;62505;46.070;14.492;2023-06-22T07:42:54;24.50;74.20
74153;DHT22;62505;46.070;14.492;2023-06-22T07:45:21;24.40;74.30
74153;DHT22;62505;46.070;14.492;2023-06-22T07:47:50;24.40;74.00
74153;DHT22;62505;46.070;14.492;2023-06-22T07:50:16;24.50;74.00
74153;DHT22;62505;46.070;14.492;2023-06-22T07:52:43;24.40;74.20
74153;DHT22;62505;46.070;14.492;2023-06-22T07:55:10;24.50;74.20
74153;DHT22;62505;46.070;14.492;2023-06-22T07:57:37;24.50;74.30
74153;DHT22;62505;46.070;14.492;2023-06-22T08:00:05;24.50;74.30
74153;DHT22;62505;46.070;14.492;2023-06-22T08:02:40;24.40;74.00
74153;DHT22;62505;46.070;14.492;2023-06-22T08:05:09;24.40;74.20
74153;DHT22;62505;46.070;14.492;2023-06-22T08:07:36;24.40;75.00
74153;DHT22;62505;46.070;14.492;2023-06-22T08:10:03;24.50;75.60
74153;DHT22;62505;46.070;14.492;2023-06-22T08:12:30;24.50;75.40
74153;DHT22;62505;46.070;14.492;2023-06-22T08:14:57;24.60;75.00
74153;DHT22;62505;46.070;14.492;2023-06-22T08:17:24;24.60;75.50
74153;DHT22;62505;46.070;14.492;2023-06-22T08:19:51;24.60;75.40
74153;DHT22;62505;46.070;14.492;2023-06-22T08:22:19;24.60;75.50
74153;DHT22;62505;46.070;14.492;2023-06-22T08:24:46;24.60;75.70
74153;DHT22;62505;46.070;14.492;2023-06-22T08:27:13;24.60;75.70
74153;DHT22;62505;46.070;14.492;2023-06-22T08:29:41;24.60;76.00
74153;DHT22;62505;46.070;14.492;2023-06-22T08:32:09;24.60;75.50
74153;DHT22;62505;46.070;14.492;2023-06-22T08:34:36;24.60;75.30
74153;DHT22;62505;46.070;14.492;2023-06-22T08:37:07;24.60;75.60
74153;DHT22;62505;46.070;14.492;2023-06-22T08:39:35;24.60;74.90
74153;DHT22;62505;46.070;14.492;2023-06-22T08:42:03;24.60;74.60
74153;DHT22;62505;46.070;14.492;2023-06-22T08:44:29;24.60;76.40
74153;DHT22;62505;46.070;14.492;2023-06-22T08:46:57;24.60;75.70
74153;DHT22;62505;46.070;14.492;2023-06-22T08:49:23;24.60;76.00
74153;DHT22;62505;46.070;14.492;2023-06-22T08:51:50;24.60;75.30
74153;DHT22;62505;46.070;14.492;2023-06-22T08:54:19;24.70;75.40
74153;DHT22;62505;46.070;14.492;2023-06-22T08:56:47;24.60;76.10
74153;DHT22;62505;46.070;14.492;2023-06-22T08:59:14;24.70;76.20
74153;DHT22;62505;46.070;14.492;2023-06-22T09:01:41;24.70;76.60
74153;DHT22;62505;46.070;14.492;2023-06-22T09:04:14;24.70;76.30
74153;DHT22;62505;46.070;14.492;2023-06-22T09:06:41;24.60;75.70
74153;DHT22;62505;46.070;14.492;2023-06-22T09:09:12;24.70;75.80
74153;DHT22;62505;46.070;14.492;2023-06-22T09:11:39;24.70;76.90
74153;DHT22;62505;46.070;14.492;2023-06-22T09:14:07;24.70;76.40
74153;DHT22;62505;46.070;14.492;2023-06-22T09:16:34;24.70;76.60
74153;DHT22;62505;46.070;14.492;2023-06-22T09:19:01;24.70;76.90
74153;DHT22;62505;46.070;14.492;2023-06-22T09:21:28;24.80;76.80
74153;DHT22;62505;46.070;14.492;2023-06-22T09:23:55;24.80;76.80
74153;DHT22;62505;46.070;14.492;2023-06-22T09:26:22;24.80;76.50
74153;DHT22;62505;46.070;14.492;2023-06-22T09:28:50;24.80;76.60
74153;DHT22;62505;46.070;14.492;2023-06-22T09:31:18;24.80;76.90
74153;DHT22;62505;46.070;14.492;2023-06-22T09:33:51;24.80;76.90
74153;DHT22;62505;46.070;14.492;2023-06-22T09:36:18;24.80;76.60
74153;DHT22;62505;46.070;14.492;2023-06-22T09:38:45;24.80;76.40
74153;DHT22;62505;46.070;14.492;2023-06-22T09:41:12;24.80;76.50
74153;DHT22;62505;46.070;14.492;2023-06-22T09:43:39;24.80;76.30
74153;DHT22;62505;46.070;14.492;2023-06-22T09:46:05;24.80;75.90
74153;DHT22;62505;46.070;14.492;2023-06-22T09:48:36;24.80;75.90
74153;DHT22;62505;46.070;14.492;2023-06-22T09:51:03;24.80;75.80
74153;DHT22;62505;46.070;14.492;2023-06-22T09:53:30;24.80;75.90
74153;DHT22;62505;46.070;14.492;2023-06-22T09:55:56;24.80;75.70
74153;DHT22;62505;46.070;14.492;2023-06-22T09:58:23;24.80;76.00
74153;DHT22;62505;46.070;14.492;2023-06-22T10:00:50;24.90;75.90
74153;DHT22;62505;46.070;14.492;2023-06-22T10:03:18;24.80;75.70
74153;DHT22;62505;46.070;14.492;2023-06-22T10:05:46;24.90;75.40
74153;DHT22;62505;46.070;14.492;2023-06-22T10:08:14;24.90;75.60
74153;DHT22;62505;46.070;14.492;2023-06-22T10:10:40;24.90;75.60
74153;DHT22;62505;46.070;14.492;2023-06-22T10:13:08;25.00;75.50
74153;DHT22;62505;46.070;14.492;2023-06-22T10:15:36;24.90;75.20
74153;DHT22;62505;46.070;14.492;2023-06-22T10:18:03;24.90;75.10
74153;DHT22;62505;46.070;14.492;2023-06-22T10:20:30;24.90;75.10
74153;DHT22;62505;46.070;14.492;2023-06-22T10:22:58;25.00;75.20
74153;DHT22;62505;46.070;14.492;2023-06-22T10:25:26;24.90;75.30
74153;DHT22;62505;46.070;14.492;2023-06-22T10:27:53;25.00;75.40
74153;DHT22;62505;46.070;14.492;2023-06-22T10:30:19;24.90;75.70
74153;DHT22;62505;46.070;14.492;2023-06-22T10:32:46;24.90;75.50
74153;DHT22;62505;46.070;14.492;2023-06-22T10:35:13;24.80;75.20
74153;DHT22;62505;46.070;14.492;2023-06-22T10:37:42;24.80;75.20
74153;DHT22;62505;46.070;14.492;2023-06-22T10:40:12;24.80;74.80
74153;DHT22;62505;46.070;14.492;2023-06-22T10:42:39;24.70;74.70
74153;DHT22;62505;46.070;14.492;2023-06-22T10:45:07;24.70;74.50
74153;DHT22;62505;46.070;14.492;2023-06-22T10:47:34;24.70;74.50
74153;DHT22;62505;46.070;14.492;2023-06-22T10:50:01;24.70;74.60
74153;DHT22;62505;46.070;14.492;2023-06-22T10:52:29;24.70;74.70
74153;DHT22;62505;46.070;14.492;2023-06-22T10:54:55;24.70;75.50
74153;DHT22;62505;46.070;14.492;2023-06-22T10:57:24;24.70;74.50
74153;DHT22;62505;46.070;14.492;2023-06-22T10:59:50;24.70;74.60
74153;DHT22;62505;46.070;14.492;2023-06-22T11:02:17;24.70;74.60
74153;DHT22;62505;46.070;14.492;2023-06-22T11:04:44;24.70;74.60
74153;DHT22;62505;46.070;14.492;2023-06-22T11:07:11;24.70;74.40
74153;DHT22;62505;46.070;14.492;2023-06-22T11:09:38;24.70;74.50
74153;DHT22;62505;46.070;14.492;2023-06-22T11:12:06;24.70;74.50
74153;DHT22;62505;46.070;14.492;2023-06-22T11:14:34;24.70;74.30
74153;DHT22;62505;46.070;14.492;2023-06-22T11:17:01;24.70;74.30
74153;DHT22;62505;46.070;14.492;2023-06-22T11:19:28;24.70;74.60
74153;DHT22;62505;46.070;14.492;2023-06-22T11:21:55;24.70;74.50
74153;DHT22;62505;46.070;14.492;2023-06-22T11:24:22;24.70;74.40
74153;DHT22;62505;46.070;14.492;2023-06-22T11:26:49;24.70;75.20
74153;DHT22;62505;46.070;14.492;2023-06-22T11:29:16;24.70;74.30
74153;DHT22;62505;46.070;14.492;2023-06-22T11:31:44;24.70;74.30
74153;DHT22;62505;46.070;14.492;2023-06-22T11:34:11;24.70;74.20
74153;DHT22;62505;46.070;14.492;2023-06-22T11:36:38;24.70;74.30
74153;DHT22;62505;46.070;14.492;2023-06-22T11:39:04;24.70;74.30
74153;DHT22;62505;46.070;14.492;2023-06-22T11:41:31;24.70;74.10
74153;DHT22;62505;46.070;14.492;2023-06-22T11:43:58;24.70;74.20
74153;DHT22;62505;46.070;14.492;2023-06-22T11:46:25;24.70;74.10
74153;DHT22;62505;46.070;14.492;2023-06-22T11:48:53;24.70;75.10
74153;DHT22;62505;46.070;14.492;2023-06-22T11:51:20;24.60;74.20
74153;DHT22;62505;46.070;14.492;2023-06-22T11:53:47;24.70;74.20
74153;DHT22;62505;46.070;14.492;2023-06-22T11:56:14;24.70;74.30
74153;DHT22;62505;46.070;14.492;2023-06-22T11:58:41;24.70;74.30
74153;DHT22;62505;46.070;14.492;2023-06-22T12:01:08;24.70;74.40
74153;DHT22;62505;46.070;14.492;2023-06-22T12:03:34;24.60;74.20
74153;DHT22;62505;46.070;14.492;2023-06-22T12:06:03;24.70;74.30
74153;DHT22;62505;46.070;14.492;2023-06-22T12:08:29;24.70;74.30
74153;DHT22;62505;46.070;14.492;2023-06-22T12:10:56;24.70;74.20
74153;DHT22;62505;46.070;14.492;2023-06-22T12:13:23;24.70;74.20
74153;DHT22;62505;46.070;14.492;2023-06-22T12:15:50;24.60;74.00
74153;DHT22;62505;46.070;14.492;2023-06-22T12:18:18;24.70;74.20
74153;DHT22;62505;46.070;14.492;2023-06-22T12:20:46;24.70;74.20
74153;DHT22;62505;46.070;14.492;2023-06-22T12:23:15;24.70;74.20
74153;DHT22;62505;46.070;14.492;2023-06-22T12:25:44;24.70;74.10
74153;DHT22;62505;46.070;14.492;2023-06-22T12:28:11;24.60;74.10
74153;DHT22;62505;46.070;14.492;2023-06-22T12:30:38;24.70;74.20
74153;DHT22;62505;46.070;14.492;2023-06-22T12:33:05;24.70;74.20
74153;DHT22;62505;46.070;14.492;2023-06-22T12:35:32;24.60;74.10
74153;DHT22;62505;46.070;14.492;2023-06-22T12:37:59;24.70;74.10
74153;DHT22;62505;46.070;14.492;2023-06-22T12:40:27;24.70;74.00
74153;DHT22;62505;46.070;14.492;2023-06-22T12:42:54;24.70;74.00
74153;DHT22;62505;46.070;14.492;2023-06-22T12:45:20;24.60;74.20
74153;DHT22;62505;46.070;14.492;2023-06-22T12:47:47;24.60;73.90
74153;DHT22;62505;46.070;14.492;2023-06-22T12:50:15;24.70;74.00
74153;DHT22;62505;46.070;14.492;2023-06-22T12:52:42;24.60;73.90
74153;DHT22;62505;46.070;14.492;2023-06-22T12:55:09;24.70;74.00
74153;DHT22;62505;46.070;14.492;2023-06-22T12:57:38;24.60;73.90
74153;DHT22;62505;46.070;14.492;2023-06-22T13:00:06;24.60;73.90
74153;DHT22;62505;46.070;14.492;2023-06-22T13:02:33;24.60;73.80
74153;DHT22;62505;46.070;14.492;2023-06-22T13:05:01;24.60;73.90
74153;DHT22;62505;46.070;14.492;2023-06-22T13:07:27;24.70;74.00
74153;DHT22;62505;46.070;14.492;2023-06-22T13:09:54;24.70;73.90
74153;DHT22;62505;46.070;14.492;2023-06-22T13:12:21;24.60;73.70
74153;DHT22;62505;46.070;14.492;2023-06-22T13:14:49;24.60;73.70
74153;DHT22;62505;46.070;14.492;2023-06-22T13:17:16;24.60;73.80
74153;DHT22;62505;46.070;14.492;2023-06-22T13:19:43;24.60;73.70
74153;DHT22;62505;46.070;14.492;2023-06-22T13:22:26;24.60;73.70
74153;DHT22;62505;46.070;14.492;2023-06-22T13:24:54;24.70;73.90
74153;DHT22;62505;46.070;14.492;2023-06-22T13:27:21;24.60;73.70
74153;DHT22;62505;46.070;14.492;2023-06-22T13:29:49;24.70;73.90
74153;DHT22;62505;46.070;14.492;2023-06-22T13:32:16;24.70;75.00
74153;DHT22;62505;46.070;14.492;2023-06-22T13:34:43;24.70;74.20
74153;DHT22;62505;46.070;14.492;2023-06-22T13:37:10;24.70;74.20
74153;DHT22;62505;46.070;14.492;2023-06-22T13:39:37;24.70;74.10
74153;DHT22;62505;46.070;14.492;2023-06-22T13:42:04;24.70;74.00
74153;DHT22;62505;46.070;14.492;2023-06-22T13:44:31;24.70;74.00
74153;DHT22;62505;46.070;14.492;2023-06-22T13:47:00;24.70;74.00
74153;DHT22;62505;46.070;14.492;2023-06-22T13:49:27;24.70;74.00
74153;DHT22;62505;46.070;14.492;2023-06-22T13:51:55;24.70;74.00
74153;DHT22;62505;46.070;14.492;2023-06-22T13:54:22;24.70;74.00
74153;DHT22;62505;46.070;14.492;2023-06-22T13:56:48;24.70;73.90
74153;DHT22;62505;46.070;14.492;2023-06-22T13:59:15;24.70;73.90
74153;DHT22;62505;46.070;14.492;2023-06-22T14:01:42;24.70;73.90
74153;DHT22;62505;46.070;14.492;2023-06-22T14:04:10;24.70;73.80
74153;DHT22;62505;46.070;14.492;2023-06-22T14:06:38;24.70;73.70
74153;DHT22;62505;46.070;14.492;2023-06-22T14:09:05;24.60;73.60
74153;DHT22;62505;46.070;14.492;2023-06-22T14:11:32;24.70;74.10
74153;DHT22;62505;46.070;14.492;2023-06-22T14:13:59;24.70;73.60
74153;DHT22;62505;46.070;14.492;2023-06-22T14:16:26;24.70;73.70
74153;DHT22;62505;46.070;14.492;2023-06-22T14:18:53;24.70;73.70
74153;DHT22;62505;46.070;14.492;2023-06-22T14:21:21;24.70;73.70
74153;DHT22;62505;46.070;14.492;2023-06-22T14:23:48;24.70;73.70
74153;DHT22;62505;46.070;14.492;2023-06-22T14:26:15;24.70;74.50
74153;DHT22;62505;46.070;14.492;2023-06-22T14:28:44;24.70;73.60
74153;DHT22;62505;46.070;14.492;2023-06-22T14:31:16;24.70;73.70
74153;DHT22;62505;46.070;14.492;2023-06-22T14:33:46;24.70;73.70
74153;DHT22;62505;46.070;14.492;2023-06-22T14:36:13;24.70;73.60
74153;DHT22;62505;46.070;14.492;2023-06-22T14:38:41;24.70;73.60
74153;DHT22;62505;46.070;14.492;2023-06-22T14:41:08;24.70;73.60
74153;DHT22;62505;46.070;14.492;2023-06-22T14:43:35;24.70;73.60
74153;DHT22;62505;46.070;14.492;2023-06-22T14:46:02;24.70;74.30
74153;DHT22;62505;46.070;14.492;2023-06-22T14:48:29;24.70;73.60
74153;DHT22;62505;46.070;14.492;2023-06-22T14:50:56;24.70;73.50
74153;DHT22;62505;46.070;14.492;2023-06-22T14:53:23;24.70;73.60
74153;DHT22;62505;46.070;14.492;2023-06-22T14:55:53;24.70;73.60
74153;DHT22;62505;46.070;14.492;2023-06-22T14:58:20;24.70;73.60
74153;DHT22;62505;46.070;14.492;2023-06-22T15:00:47;24.70;73.60
74153;DHT22;62505;46.070;14.492;2023-06-22T15:03:14;24.70;74.30
74153;DHT22;62505;46.070;14.492;2023-06-22T15:05:47;24.70;73.50
74153;DHT22;62505;46.070;14.492;2023-06-22T15:08:14;24.70;73.50
74153;DHT22;62505;46.070;14.492;2023-06-22T15:10:40;24.70;73.50
74153;DHT22;62505;46.070;14.492;2023-06-22T15:13:09;24.70;73.50
74153;DHT22;62505;46.070;14.492;2023-06-22T15:15:35;24.70;73.50
74153;DHT22;62505;46.070;14.492;2023-06-22T15:18:02;24.70;73.50